EDLI 291025Z 26014KT 9999 ///029 10/08 Q1014

Wind aktuell: 250° mit 12 kt

Wind 10 Minuten extrem:

230° bis 280° mit 9 kt bis 21 kt

Seitenwindkomponente: 7.8 kt

Wolkengrenze 1: 2900 ft

Wolkengrenze 2:

Wolkengrenze 3:

Sichtweite: 20.000 Meter

Vorheriges Wetter:

Aktuelles Wetter:

Temperatur: 10.5 °C

Taupunkt: 8.2 °C

Luftfeuchtigkeit: 85%

QNH: 1014 hPa 

QFE: 998 hPa

Diese Daten werden automatisch ermittelt bzw. übertragen und sind nicht geprüft. Für die Richtigkeit wird daher keine Gewähr übernommen. Sie ersetzen im übrigen nicht die Flugwetterberatung. Alle Zeitangaben beziehen sich auf UTC. Die Seite wird einmal die Minute aktualisiert! Sollten Sie ein ältere Seite haben, so drücken Sie bitte auf den Reload Button Ihres Browsers!